createdAt,value
2023-02-27T00:00:16.653Z,1.83
2023-02-27T00:02:49.273Z,2.00
2023-02-27T00:05:16.946Z,1.67
2023-02-27T00:07:44.433Z,2.65
2023-02-27T00:10:12.491Z,2.03
2023-02-27T00:12:39.474Z,1.98
2023-02-27T00:15:18.720Z,2.03
2023-02-27T00:17:45.885Z,2.03
2023-02-27T00:20:15.427Z,1.80
2023-02-27T00:22:43.078Z,1.92
2023-02-27T00:25:10.987Z,1.73
2023-02-27T00:27:38.205Z,1.40
2023-02-27T00:30:07.210Z,1.80
2023-02-27T00:32:36.722Z,1.80
2023-02-27T00:35:09.156Z,1.60
2023-02-27T00:37:36.280Z,1.80
2023-02-27T00:40:07.523Z,1.67
2023-02-27T00:42:35.325Z,1.90
2023-02-27T00:45:03.262Z,2.05
2023-02-27T00:47:30.258Z,1.60
2023-02-27T00:49:57.227Z,2.00
2023-02-27T00:52:24.193Z,2.12
2023-02-27T00:54:51.350Z,1.70
2023-02-27T00:57:18.563Z,1.80
2023-02-27T00:59:46.648Z,1.90
2023-02-27T01:02:13.602Z,1.80
2023-02-27T01:04:40.719Z,1.83
2023-02-27T01:07:08.028Z,1.70
2023-02-27T01:09:35.912Z,1.37
2023-02-27T01:12:02.824Z,1.70
2023-02-27T01:14:30.006Z,1.92
2023-02-27T01:16:58.229Z,1.85
2023-02-27T01:19:25.875Z,1.67
2023-02-27T01:21:52.982Z,1.60
2023-02-27T01:24:20.022Z,1.48
2023-02-27T01:26:47.662Z,1.65
2023-02-27T01:29:15.592Z,1.70
2023-02-27T01:31:42.850Z,1.67
2023-02-27T01:34:09.813Z,1.90
2023-02-27T01:36:36.696Z,1.37
2023-02-27T01:39:03.990Z,1.55
2023-02-27T01:41:31.811Z,1.60
2023-02-27T01:44:08.574Z,1.63
2023-02-27T01:46:35.775Z,1.45
2023-02-27T01:49:08.628Z,1.60
2023-02-27T01:51:45.197Z,1.58
2023-02-27T01:54:15.062Z,2.05
2023-02-27T01:56:42.651Z,1.73
2023-02-27T01:59:11.274Z,1.42
2023-02-27T02:01:39.372Z,1.70
2023-02-27T02:04:29.116Z,1.52
2023-02-27T02:07:00.475Z,1.50
2023-02-27T02:09:30.087Z,1.80
2023-02-27T02:11:59.440Z,1.37
2023-02-27T02:14:26.392Z,1.80
2023-02-27T02:17:05.308Z,1.67
2023-02-27T02:19:56.331Z,1.62
2023-02-27T02:22:26.314Z,1.40
2023-02-27T02:25:14.630Z,1.67
2023-02-27T02:28:03.004Z,1.50
2023-02-27T02:30:48.690Z,1.55
2023-02-27T02:33:21.763Z,1.83
2023-02-27T02:36:33.614Z,1.40
2023-02-27T02:39:14.467Z,1.50
2023-02-27T02:41:41.427Z,1.60
2023-02-27T02:44:36.578Z,1.30
2023-02-27T02:47:22.736Z,1.65
2023-02-27T02:49:54.211Z,1.70
2023-02-27T02:52:21.026Z,1.90
2023-02-27T02:55:09.628Z,1.70
2023-02-27T02:58:21.961Z,1.62
2023-02-27T03:01:03.753Z,1.65
2023-02-27T03:03:39.487Z,1.63
2023-02-27T03:06:15.001Z,2.00
2023-02-27T03:08:51.117Z,1.77
2023-02-27T03:11:18.237Z,2.10
2023-02-27T03:13:51.444Z,1.80
2023-02-27T03:16:25.257Z,1.70
2023-02-27T03:19:16.092Z,1.87
2023-02-27T03:21:49.730Z,1.58
2023-02-27T03:24:45.620Z,1.92
2023-02-27T03:27:13.594Z,1.92
2023-02-27T03:29:42.829Z,2.07
2023-02-27T03:32:17.781Z,1.50
2023-02-27T03:34:45.906Z,2.20
2023-02-27T03:37:39.740Z,2.45
2023-02-27T03:40:17.212Z,2.42
2023-02-27T03:42:53.861Z,2.70
2023-02-27T03:45:20.581Z,2.30
2023-02-27T03:47:47.650Z,2.47
2023-02-27T03:50:15.376Z,2.25
2023-02-27T03:52:43.090Z,2.28
2023-02-27T03:55:15.797Z,2.87
2023-02-27T03:57:45.093Z,3.05
2023-02-27T04:00:17.379Z,3.72
2023-02-27T04:02:46.596Z,3.70
2023-02-27T04:05:13.482Z,3.55
2023-02-27T04:08:07.667Z,3.10
2023-02-27T04:10:49.543Z,2.62
2023-02-27T04:13:22.501Z,2.37
2023-02-27T04:16:06.770Z,2.10
2023-02-27T04:19:01.618Z,2.05
2023-02-27T04:22:01.866Z,2.10
2023-02-27T04:25:05.819Z,2.10
2023-02-27T04:27:32.654Z,2.37
2023-02-27T04:30:22.418Z,2.10
2023-02-27T04:32:54.596Z,1.80
2023-02-27T04:35:39.098Z,2.00
2023-02-27T04:38:20.561Z,2.30
2023-02-27T04:40:59.637Z,2.17
2023-02-27T04:43:29.427Z,1.90
2023-02-27T04:45:58.802Z,2.17
2023-02-27T04:48:29.658Z,2.13
2023-02-27T04:51:11.415Z,1.75
2023-02-27T04:53:54.771Z,1.58
2023-02-27T04:57:02.224Z,1.80
2023-02-27T04:59:36.615Z,1.70
2023-02-27T05:02:12.856Z,2.00
2023-02-27T05:04:43.510Z,1.83
2023-02-27T05:07:15.801Z,1.90
2023-02-27T05:09:55.379Z,2.45
2023-02-27T05:12:34.400Z,2.30
2023-02-27T05:15:27.535Z,3.17
2023-02-27T05:18:04.520Z,4.00
2023-02-27T05:20:40.949Z,5.53
2023-02-27T05:23:56.194Z,7.87
2023-02-27T05:26:32.099Z,8.15
2023-02-27T05:29:07.792Z,13.33
2023-02-27T05:31:50.172Z,11.70
2023-02-27T05:34:22.960Z,10.73
2023-02-27T05:37:02.290Z,11.48
2023-02-27T05:39:34.652Z,10.80
2023-02-27T05:42:11.662Z,8.47
2023-02-27T05:44:44.143Z,6.95
2023-02-27T05:47:17.362Z,5.68
2023-02-27T05:50:00.128Z,4.80
2023-02-27T05:52:29.565Z,3.35
2023-02-27T05:54:58.804Z,2.70
2023-02-27T05:58:12.179Z,2.42
2023-02-27T06:00:54.369Z,1.98
2023-02-27T06:03:21.598Z,1.98
2023-02-27T06:05:53.142Z,1.67
2023-02-27T06:08:21.784Z,1.50
2023-02-27T06:10:51.929Z,1.98
2023-02-27T06:13:19.214Z,2.20
2023-02-27T06:15:46.219Z,2.60
2023-02-27T06:18:15.083Z,3.30
2023-02-27T06:20:43.679Z,3.20
2023-02-27T06:23:11.769Z,3.12
2023-02-27T06:25:39.585Z,3.50
2023-02-27T06:28:06.488Z,2.80
2023-02-27T06:30:33.592Z,2.47
2023-02-27T06:33:01.140Z,2.50
2023-02-27T06:35:29.516Z,1.87
2023-02-27T06:37:56.804Z,1.70
2023-02-27T06:40:24.111Z,1.60
2023-02-27T06:42:51.261Z,1.50
2023-02-27T06:45:18.260Z,1.70
2023-02-27T06:47:45.209Z,1.45
2023-02-27T06:50:14.344Z,1.30
2023-02-27T06:52:41.992Z,1.30
2023-02-27T06:55:09.905Z,1.30
2023-02-27T06:57:36.753Z,1.80
2023-02-27T07:00:07.233Z,1.35
2023-02-27T07:02:34.428Z,1.65
2023-02-27T07:05:08.269Z,1.40
2023-02-27T07:07:38.012Z,1.90
2023-02-27T07:10:11.873Z,1.70
2023-02-27T07:12:40.156Z,1.80
2023-02-27T07:15:08.593Z,1.58
2023-02-27T07:17:36.096Z,1.70
2023-02-27T07:20:04.091Z,1.50
2023-02-27T07:22:31.130Z,1.97
2023-02-27T07:24:57.948Z,1.58
2023-02-27T07:27:24.923Z,1.90
2023-02-27T07:29:52.819Z,2.20
2023-02-27T07:32:19.966Z,1.90
2023-02-27T07:34:46.911Z,1.60
2023-02-27T07:37:14.140Z,1.95
2023-02-27T07:39:41.734Z,1.37
2023-02-27T07:42:08.796Z,1.67
2023-02-27T07:44:35.783Z,1.67
2023-02-27T07:47:03.200Z,1.60
2023-02-27T07:49:30.171Z,1.33
2023-02-27T07:51:57.276Z,1.45
2023-02-27T07:54:24.491Z,1.40
2023-02-27T07:56:51.415Z,1.48
2023-02-27T07:59:18.363Z,1.30
2023-02-27T08:01:45.433Z,1.58
2023-02-27T08:04:12.363Z,1.30
2023-02-27T08:06:39.918Z,1.70
2023-02-27T08:09:07.042Z,1.00
2023-02-27T08:11:33.931Z,1.20
2023-02-27T08:14:02.066Z,1.42
2023-02-27T08:16:31.123Z,1.20
2023-02-27T08:18:59.339Z,1.37
2023-02-27T08:21:26.810Z,0.98
2023-02-27T08:23:54.686Z,1.17
2023-02-27T08:26:21.963Z,1.70
2023-02-27T08:28:48.942Z,1.40
2023-02-27T08:31:16.250Z,1.98
2023-02-27T08:33:43.140Z,2.20
2023-02-27T08:36:10.283Z,1.50
2023-02-27T08:38:37.879Z,1.75
2023-02-27T08:41:04.884Z,1.50
2023-02-27T08:43:31.770Z,1.23
2023-02-27T08:45:58.922Z,1.50
2023-02-27T08:48:25.995Z,1.17
2023-02-27T08:50:53.204Z,1.50
2023-02-27T08:53:20.163Z,1.37
2023-02-27T08:55:53.913Z,1.98
2023-02-27T08:58:20.916Z,1.90
2023-02-27T09:00:47.960Z,1.20
2023-02-27T09:03:15.233Z,1.48
2023-02-27T09:05:42.901Z,1.37
2023-02-27T09:08:09.982Z,1.30
2023-02-27T09:10:37.001Z,1.52
2023-02-27T09:13:04.376Z,1.57
2023-02-27T09:15:32.628Z,1.98
2023-02-27T09:18:03.236Z,1.42
2023-02-27T09:20:35.817Z,1.37
2023-02-27T09:23:04.004Z,1.02
2023-02-27T09:25:31.088Z,1.40
2023-02-27T09:27:58.321Z,1.70
2023-02-27T09:30:25.415Z,1.00
2023-02-27T09:32:52.490Z,1.40
2023-02-27T09:35:22.778Z,1.25
2023-02-27T09:37:50.046Z,1.40
2023-02-27T09:40:25.510Z,1.17
2023-02-27T09:42:57.083Z,1.10
2023-02-27T09:45:26.744Z,1.20
2023-02-27T09:47:58.847Z,1.33
2023-02-27T09:50:44.704Z,1.37
2023-02-27T09:53:37.961Z,1.55
2023-02-27T09:56:28.991Z,1.40
2023-02-27T09:59:24.122Z,1.35
2023-02-27T10:02:12.850Z,1.08
2023-02-27T10:05:16.892Z,1.80
2023-02-27T10:08:01.512Z,1.30
2023-02-27T10:10:43.468Z,1.30
2023-02-27T10:13:52.107Z,1.20
2023-02-27T10:16:21.778Z,1.27
2023-02-27T10:18:58.536Z,1.30
2023-02-27T10:21:33.604Z,1.50
2023-02-27T10:24:07.676Z,1.80
2023-02-27T10:26:41.848Z,1.60
2023-02-27T10:29:33.538Z,1.40
2023-02-27T10:32:11.397Z,1.57
2023-02-27T10:34:41.651Z,1.55
2023-02-27T10:37:15.576Z,1.70
2023-02-27T10:39:53.336Z,1.23
2023-02-27T10:42:22.088Z,1.80
2023-02-27T10:44:53.623Z,1.93
2023-02-27T10:47:25.131Z,1.70
2023-02-27T10:49:54.888Z,1.70
2023-02-27T10:52:22.076Z,1.70
2023-02-27T10:54:48.979Z,1.73
2023-02-27T10:57:33.631Z,1.80
2023-02-27T11:00:07.187Z,1.90
2023-02-27T11:02:42.789Z,1.58
2023-02-27T11:05:31.414Z,2.00
2023-02-27T11:08:11.905Z,1.85
2023-02-27T11:10:54.580Z,2.00
2023-02-27T11:13:24.743Z,1.70
2023-02-27T11:16:07.921Z,1.80
2023-02-27T11:18:37.228Z,1.95
2023-02-27T11:21:23.998Z,2.00
2023-02-27T11:23:54.980Z,1.70
2023-02-27T11:26:25.589Z,1.70
2023-02-27T11:29:06.169Z,2.05
2023-02-27T11:31:35.687Z,2.00
2023-02-27T11:34:04.989Z,1.73
2023-02-27T11:36:46.984Z,2.13
2023-02-27T11:39:25.484Z,1.98
2023-02-27T11:41:56.403Z,2.30
2023-02-27T11:44:38.713Z,2.72
2023-02-27T11:47:24.244Z,1.80
2023-02-27T11:50:04.216Z,2.00
2023-02-27T11:52:46.965Z,2.10
2023-02-27T11:55:21.745Z,2.03
2023-02-27T11:57:58.332Z,2.10
2023-02-27T12:00:45.603Z,2.03
2023-02-27T12:03:32.367Z,2.20
2023-02-27T12:06:04.907Z,2.08
2023-02-27T12:08:42.258Z,2.10
2023-02-27T12:11:37.194Z,1.73
2023-02-27T12:14:09.256Z,2.40
2023-02-27T12:16:51.079Z,2.07
2023-02-27T12:19:20.868Z,1.80
2023-02-27T12:21:54.248Z,1.42
2023-02-27T12:24:31.473Z,1.83
2023-02-27T12:27:19.280Z,1.92
2023-02-27T12:30:02.777Z,2.30
2023-02-27T12:32:49.954Z,2.15
2023-02-27T12:35:23.268Z,2.03
2023-02-27T12:37:51.456Z,2.67
2023-02-27T12:40:20.564Z,1.80
2023-02-27T12:43:07.926Z,2.50
2023-02-27T12:45:52.710Z,2.08
2023-02-27T12:48:55.026Z,2.03
2023-02-27T12:51:31.049Z,2.08
2023-02-27T12:54:07.055Z,1.73
2023-02-27T12:56:51.902Z,2.30
2023-02-27T12:59:40.096Z,1.75
2023-02-27T13:02:34.390Z,2.17
2023-02-27T13:05:20.414Z,1.90
2023-02-27T13:07:50.317Z,1.98
2023-02-27T13:10:28.385Z,3.10
2023-02-27T13:13:03.537Z,2.55
2023-02-27T13:15:39.109Z,2.37
2023-02-27T13:18:33.879Z,2.30
2023-02-27T13:21:15.042Z,2.30
2023-02-27T13:23:53.093Z,4.23
2023-02-27T13:26:45.092Z,2.17
2023-02-27T13:29:17.173Z,2.10
2023-02-27T13:31:44.213Z,1.90
2023-02-27T13:34:20.132Z,2.30
2023-02-27T13:37:02.229Z,2.20
2023-02-27T13:39:56.258Z,2.03
2023-02-27T13:42:25.799Z,2.35
2023-02-27T13:44:52.835Z,2.15
2023-02-27T13:47:40.487Z,2.20
2023-02-27T13:50:21.341Z,3.60
2023-02-27T13:52:48.540Z,2.90
2023-02-27T13:55:37.799Z,2.62
2023-02-27T13:58:05.753Z,1.90
2023-02-27T14:00:37.956Z,1.75
2023-02-27T14:03:22.055Z,1.97
2023-02-27T14:05:53.123Z,1.70
2023-02-27T14:08:35.552Z,3.75
2023-02-27T14:11:16.470Z,2.50
2023-02-27T14:13:54.626Z,2.08
2023-02-27T14:16:44.255Z,2.33
2023-02-27T14:19:18.177Z,1.87
2023-02-27T14:21:57.022Z,2.30
2023-02-27T14:24:29.160Z,2.17
2023-02-27T14:26:56.748Z,2.17
2023-02-27T14:29:33.445Z,2.13
2023-02-27T14:32:04.462Z,2.40
2023-02-27T14:34:31.528Z,3.00
2023-02-27T14:37:01.847Z,4.75
2023-02-27T14:39:33.429Z,4.35
2023-02-27T14:42:22.191Z,3.80
2023-02-27T14:44:51.018Z,3.05
2023-02-27T14:47:35.166Z,2.53
2023-02-27T14:50:06.982Z,2.20
2023-02-27T14:52:42.352Z,2.10
2023-02-27T14:55:30.035Z,1.90
2023-02-27T14:58:18.633Z,1.90
2023-02-27T15:01:08.129Z,1.92
2023-02-27T15:03:44.216Z,1.60
2023-02-27T15:06:21.867Z,2.20
2023-02-27T15:08:52.657Z,2.40
2023-02-27T15:11:22.324Z,2.28
2023-02-27T15:13:57.885Z,2.17
2023-02-27T15:16:36.394Z,1.80
2023-02-27T15:19:17.783Z,2.12
2023-02-27T15:21:58.748Z,2.77
2023-02-27T15:24:28.585Z,2.17
2023-02-27T15:27:00.819Z,2.40
2023-02-27T15:29:34.512Z,2.05
2023-02-27T15:32:03.137Z,2.50
2023-02-27T15:34:35.469Z,1.97
2023-02-27T15:37:05.698Z,2.33
2023-02-27T15:39:34.489Z,2.47
2023-02-27T15:42:04.340Z,2.10
2023-02-27T15:44:40.996Z,2.67
2023-02-27T15:47:15.781Z,3.50
2023-02-27T15:49:43.288Z,4.55
2023-02-27T15:52:20.398Z,5.15
2023-02-27T15:55:02.793Z,4.53
2023-02-27T15:57:30.781Z,3.10
2023-02-27T15:59:59.940Z,3.53
2023-02-27T16:02:30.844Z,2.10
2023-02-27T16:04:58.232Z,2.45
2023-02-27T16:07:27.337Z,2.50
2023-02-27T16:10:03.952Z,2.20
2023-02-27T16:12:33.198Z,2.27
2023-02-27T16:15:34.670Z,2.60
2023-02-27T16:18:06.750Z,2.30
2023-02-27T16:20:50.687Z,2.28
2023-02-27T16:23:29.478Z,2.53
2023-02-27T16:26:05.119Z,2.60
2023-02-27T16:28:56.699Z,2.50
2023-02-27T16:31:33.103Z,3.05
2023-02-27T16:34:14.261Z,4.30
2023-02-27T16:36:46.691Z,8.02
2023-02-27T16:39:16.069Z,8.97
2023-02-27T16:41:43.671Z,9.15
2023-02-27T16:44:10.883Z,10.63
2023-02-27T16:46:37.884Z,9.75
2023-02-27T16:49:19.248Z,11.95
2023-02-27T16:51:47.172Z,12.50
2023-02-27T16:57:46.567Z,14.60
2023-02-27T17:00:18.148Z,13.98
2023-02-27T17:02:48.923Z,14.13
2023-02-27T17:05:16.543Z,14.60
2023-02-27T17:07:45.253Z,14.30
2023-02-27T17:10:22.445Z,13.13
2023-02-27T17:12:49.622Z,12.68
2023-02-27T17:15:17.053Z,12.40
2023-02-27T17:17:45.279Z,12.15
2023-02-27T17:20:14.796Z,11.70
2023-02-27T17:22:47.835Z,10.02
2023-02-27T17:25:15.171Z,9.80
2023-02-27T17:27:43.844Z,9.83
2023-02-27T17:30:12.900Z,9.77
2023-02-27T17:32:40.294Z,9.45
2023-02-27T17:35:08.579Z,9.70
2023-02-27T17:37:36.987Z,11.15
2023-02-27T17:40:06.079Z,12.37
2023-02-27T17:42:39.693Z,12.37
2023-02-27T17:45:08.351Z,12.63
2023-02-27T17:47:36.070Z,13.50
2023-02-27T17:50:05.582Z,12.63
2023-02-27T17:52:39.462Z,13.67
2023-02-27T17:55:09.141Z,14.32
2023-02-27T17:57:38.080Z,14.35
2023-02-27T18:00:09.339Z,15.77
2023-02-27T18:02:37.803Z,17.87
2023-02-27T18:05:06.908Z,20.50
2023-02-27T18:07:35.082Z,16.25
2023-02-27T18:10:03.739Z,11.35
2023-02-27T18:12:31.411Z,7.80
2023-02-27T18:14:59.300Z,6.57
2023-02-27T18:17:27.021Z,6.47
2023-02-27T18:19:55.143Z,6.75
2023-02-27T18:22:23.203Z,6.10
2023-02-27T18:24:55.539Z,5.03
2023-02-27T18:27:23.503Z,5.62
2023-02-27T18:29:51.559Z,6.73
2023-02-27T18:32:20.453Z,4.35
2023-02-27T18:34:48.235Z,8.25
2023-02-27T18:37:16.202Z,6.90
2023-02-27T18:39:44.681Z,5.90
2023-02-27T18:42:12.646Z,23.40
2023-02-27T18:44:41.894Z,7.80
2023-02-27T18:47:10.221Z,5.35
2023-02-27T18:49:38.710Z,4.47
2023-02-27T18:52:07.403Z,4.47
2023-02-27T18:54:34.690Z,3.50
2023-02-27T18:57:02.660Z,3.83
2023-02-27T18:59:30.596Z,3.83
2023-02-27T19:01:58.556Z,3.22
2023-02-27T19:04:29.027Z,3.70
2023-02-27T19:06:57.213Z,3.30
2023-02-27T19:09:31.460Z,4.00
2023-02-27T19:12:00.562Z,4.22
2023-02-27T19:14:28.194Z,4.10
2023-02-27T19:16:57.196Z,4.57
2023-02-27T19:19:28.593Z,4.63
2023-02-27T19:21:57.304Z,3.67
2023-02-27T19:24:25.733Z,3.87
2023-02-27T19:26:53.718Z,4.07
2023-02-27T19:29:22.853Z,4.32
2023-02-27T19:31:50.479Z,5.00
2023-02-27T19:34:20.079Z,4.55
2023-02-27T19:36:48.073Z,4.43
2023-02-27T19:39:15.759Z,4.85
2023-02-27T19:41:44.172Z,4.50
2023-02-27T19:44:13.581Z,4.60
2023-02-27T19:46:42.126Z,5.82
2023-02-27T19:49:11.830Z,6.18
2023-02-27T19:51:41.584Z,7.50
2023-02-27T19:54:15.661Z,6.15
2023-02-27T19:56:43.439Z,7.63
2023-02-27T19:59:12.394Z,6.82
2023-02-27T20:01:43.530Z,6.82
2023-02-27T20:04:12.162Z,5.68
2023-02-27T20:06:44.523Z,5.75
2023-02-27T20:09:16.170Z,6.10
2023-02-27T20:11:45.709Z,6.00
2023-02-27T20:14:16.647Z,7.25
2023-02-27T20:16:45.651Z,6.22
2023-02-27T20:19:16.777Z,5.50
2023-02-27T20:21:46.099Z,6.43
2023-02-27T20:24:16.406Z,6.03
2023-02-27T20:26:52.913Z,6.10
2023-02-27T20:29:24.057Z,4.93
2023-02-27T20:31:53.312Z,5.95
2023-02-27T20:34:26.483Z,6.67
2023-02-27T20:36:55.628Z,6.30
2023-02-27T20:39:23.376Z,6.90
2023-02-27T20:41:51.334Z,6.60
2023-02-27T20:44:19.331Z,6.25
2023-02-27T20:46:49.396Z,6.00
2023-02-27T20:49:17.626Z,6.55
2023-02-27T20:51:45.837Z,6.53
2023-02-27T20:54:16.916Z,6.75
2023-02-27T20:56:44.942Z,6.53
2023-02-27T20:59:15.349Z,6.33
2023-02-27T21:01:51.783Z,6.20
2023-02-27T21:04:21.419Z,5.80
2023-02-27T21:06:48.917Z,5.97
2023-02-27T21:09:16.720Z,6.20
2023-02-27T21:11:44.420Z,5.97
2023-02-27T21:14:12.767Z,6.53
2023-02-27T21:16:41.063Z,5.72
2023-02-27T21:19:09.176Z,7.32
2023-02-27T21:21:40.616Z,7.10
2023-02-27T21:24:08.210Z,7.27
2023-02-27T21:26:39.489Z,7.05
2023-02-27T21:29:13.319Z,7.18
2023-02-27T21:31:42.384Z,8.40
2023-02-27T21:34:13.501Z,8.80
2023-02-27T21:36:42.955Z,8.37
2023-02-27T21:39:15.704Z,8.18
2023-02-27T21:41:52.266Z,9.10
2023-02-27T21:44:21.210Z,9.95
2023-02-27T21:46:48.264Z,8.95
2023-02-27T21:49:23.543Z,9.53
2023-02-27T21:51:50.659Z,9.52
2023-02-27T21:54:18.922Z,11.27
2023-02-27T21:56:47.384Z,10.80
2023-02-27T21:59:15.134Z,12.45
2023-02-27T22:01:47.157Z,13.53
2023-02-27T22:04:15.424Z,13.48
2023-02-27T22:06:42.253Z,15.63
2023-02-27T22:09:09.150Z,15.18
2023-02-27T22:11:36.424Z,14.02
2023-02-27T22:14:05.930Z,16.50
2023-02-27T22:16:33.326Z,15.65
2023-02-27T22:19:05.590Z,17.48
2023-02-27T22:21:32.716Z,15.95
2023-02-27T22:24:00.001Z,17.15
2023-02-27T22:26:28.393Z,15.47
2023-02-27T22:28:57.316Z,14.32
2023-02-27T22:31:34.007Z,14.48
2023-02-27T22:34:12.289Z,13.48
2023-02-27T22:36:41.754Z,13.45
2023-02-27T22:39:10.403Z,12.17
2023-02-27T22:41:39.589Z,12.27
2023-02-27T22:44:07.886Z,11.30
2023-02-27T22:46:40.568Z,11.98
2023-02-27T22:49:13.522Z,10.93
2023-02-27T22:51:40.584Z,12.10
2023-02-27T22:54:08.742Z,12.35
2023-02-27T22:56:36.840Z,10.40
2023-02-27T22:59:04.896Z,11.70
2023-02-27T23:01:34.933Z,10.80
2023-02-27T23:04:05.127Z,11.67
2023-02-27T23:06:35.572Z,11.30
2023-02-27T23:09:04.304Z,11.18
2023-02-27T23:11:31.863Z,12.32
2023-02-27T23:13:59.002Z,11.05
2023-02-27T23:16:26.171Z,11.53
2023-02-27T23:18:55.806Z,12.05
2023-02-27T23:21:26.028Z,13.48
2023-02-27T23:23:58.156Z,12.37
2023-02-27T23:26:28.479Z,12.77
2023-02-27T23:28:56.721Z,12.13
2023-02-27T23:31:23.827Z,11.55
2023-02-27T23:33:50.995Z,11.15
2023-02-27T23:36:18.023Z,13.25
2023-02-27T23:38:48.539Z,11.60
2023-02-27T23:41:20.834Z,11.00
2023-02-27T23:43:52.717Z,10.15
2023-02-27T23:46:20.497Z,11.18
2023-02-27T23:48:48.062Z,11.27
2023-02-27T23:51:15.892Z,11.38
2023-02-27T23:53:43.055Z,10.63
2023-02-27T23:56:24.983Z,10.82
2023-02-27T23:58:58.306Z,10.10
